Topaz, Utah
Current Conditions -  °F | °C
As of 1:55 AM on Saturday 22 Nov 2014 (Local Time) from KDTA Reporting Station
Clear Clear  
Wind Chill: 30°   Ceiling: Unl
Heat Index: 37°   Visibility: 10mi
Dew Point: 25°   Wind: 12mph
Humidity: 60%   Direction: 170°S
Pressure: 30.01"   Gusts: NA
Location:  39.4463°N, 112.85°W
Report Text: KDTA 220855Z AUTO 17010KT 10SM CLR 03/M04 A3001 RMK AO1 T00291041
Loading
Personal Weather Stations






























Interactive Weather Map New forecast layout! Learn more

10-Day Weather Forecast

Advertisements
Track Severe Weather on mobile